• pl
  • eng

Awiacja
TAF FT 08:06 22.08.2017
  • WIND
  • SIGNIFICANT EURO
  • SIGNIFICANT
  • SIGMET
  • AIRMET
  • TAF FC
  • TAF FT
  • METAR GG30
  • METAR GG00


TAF EPBY 220530Z 2206/2306 27010KT 9999 BKN015
TEMPO 2206/2215 3000 SHRA BR BKN005 BKN015CB
PROB40 TEMPO 2209/2217 TSRA
PROB40 2221/2224 4000 BR=

TAF EPGD 220530Z 2206/2306 27005KT 1500 BR OVC003
BECMG 2206/2208 9999 SCT018
TEMPO 2208/2216 SHRA BKN015CB
PROB40 TEMPO 2208/2215 4000 TSRA BKN013CB=

TAF EPKK 220530Z 2206/2306 27010KT 9999 SCT040
TEMPO 2208/2217 27015G26KT SCT030CB=

TAF EPKT 220530Z 2206/2306 27010KT 9999 BKN007
BECMG 2206/2208 SCT040
TEMPO 2208/2217 28015G26KT SCT030CB=

TAF AMD EPLL 220601Z 2206/2306 27012KT 9999 BKN009
BECMG 2206/2208 SCT030
PROB40 TEMPO 2210/2217 28015G25KT SCT030CB
TEMPO 2217/2222 SHRA BKN012 BKN025CB
TEMPO 2222/2306 BKN006=

TAF EPMO 220530Z 2206/2306 27008KT 9999 BKN030
TEMPO 2209/2220 27015G25KT SHRA BKN025CB
PROB40 TEMPO 2211/2217 4000 TSRA
PROB40 2223/2306 BKN005=

TAF EPPO 220530Z 2206/2306 28010KT 9999 SCT035
TEMPO 2206/2209 BKN013
PROB30 2206/2207 BKN007
PROB40 TEMPO 2209/2216 30016G26KT SCT030CB
PROB30 TEMPO 2216/2221 SCT030CB=

TAF EPRZ 220530Z 2206/2306 27010KT 9999 SCT040
TEMPO 2207/2219 29015G28KT SHRA SCT030CB
PROB30 TEMPO 2212/2218 TSRA=

TAF EPSC 220530Z 2206/2306 27010KT 9999 SCT020
PROB40 TEMPO 2209/2216 27015G25KT SHRA SCT015TCU
PROB40 2300/2306 4000 BR=

TAF AMD EPWA 220601Z 2206/2306 28010KT 9999 BKN012
BECMG 2206/2208 SCT030
TEMPO 2209/2220 27015G25KT SHRA BKN025CB
PROB40 TEMPO 2211/2217 4000 TSRA
PROB40 2223/2306 BKN005=

TAF EPWR 220530Z 2206/2306 28010KT 9999 SCT040
PROB30 TEMPO 2206/2208 BKN014
PROB40 TEMPO 2209/2216 30015G25KT SCT035CB=
Awiacja.imgw.pl jest pogodowym serwisem informacyjnym
Instytutu Meteorologii i Gospodarki Wodnej Państwowego Instytutu Badawczego.
Copyright IMGW PIB 2009-2011© Wszelkie prawa zastrzeżone.